createdAt,value
2022-12-31T00:17:42.459Z,12.3
2022-12-31T00:27:37.470Z,12.6
2022-12-31T00:37:39.502Z,12.6
2022-12-31T00:57:43.651Z,12.2
2022-12-31T01:17:54.414Z,12
2022-12-31T01:37:51.804Z,11.9
2022-12-31T01:47:53.480Z,12
2022-12-31T01:57:55.523Z,12.1
2022-12-31T02:07:57.882Z,12.3
2022-12-31T02:18:06.793Z,12.7
2022-12-31T02:38:03.284Z,13.4
2022-12-31T02:48:05.628Z,13.5
2022-12-31T02:58:07.461Z,13.8
2022-12-31T03:08:09.853Z,14.1
2022-12-31T03:18:12.379Z,14.5
2022-12-31T03:28:15.001Z,14.7
2022-12-31T03:38:17.379Z,14.4
2022-12-31T03:48:19.683Z,14.1
2022-12-31T03:58:21.427Z,14.1
2022-12-31T04:08:23.387Z,14
2022-12-31T04:18:25.527Z,13.5
2022-12-31T04:28:27.477Z,13.3
2022-12-31T04:38:29.752Z,13.3
2022-12-31T04:48:31.670Z,13.7
2022-12-31T04:58:33.645Z,14
2022-12-31T05:08:35.527Z,14.7
2022-12-31T05:18:37.769Z,15
2022-12-31T05:28:39.643Z,15.2
2022-12-31T05:38:41.758Z,15.4
2022-12-31T05:48:43.588Z,15.6
2022-12-31T05:58:45.241Z,15.8
2022-12-31T06:08:47.138Z,15.9
2022-12-31T06:18:49.031Z,16
2022-12-31T06:28:51.554Z,15.6
2022-12-31T06:38:53.985Z,16
2022-12-31T06:48:56.220Z,16.1
2022-12-31T06:58:58.298Z,16
2022-12-31T07:09:00.289Z,16.3
2022-12-31T07:19:02.333Z,16.1
2022-12-31T07:29:04.855Z,16.2
2022-12-31T07:39:06.552Z,16.3
2022-12-31T07:49:09.050Z,16.2
2022-12-31T07:59:11.559Z,16.3
2022-12-31T08:09:13.364Z,16.3
2022-12-31T08:19:15.724Z,16.5
2022-12-31T08:29:17.516Z,16.3
2022-12-31T08:39:19.402Z,16.5
2022-12-31T08:49:21.276Z,16.4
2022-12-31T08:59:23.804Z,16.6
2022-12-31T09:09:26.102Z,16.6
2022-12-31T09:19:28.117Z,16.6
2022-12-31T09:29:29.894Z,16.7
2022-12-31T09:39:31.693Z,16.6
2022-12-31T09:49:34.192Z,16.3
2022-12-31T09:59:36.501Z,16.5
2022-12-31T10:09:38.208Z,16.4
2022-12-31T10:19:40.787Z,16.3
2022-12-31T10:29:43.255Z,16.5
2022-12-31T10:39:45.115Z,16.5
2022-12-31T10:49:47.443Z,16.7
2022-12-31T10:59:49.556Z,16.8
2022-12-31T11:09:51.209Z,16.9
2022-12-31T11:19:53.534Z,17
2022-12-31T11:29:55.739Z,17
2022-12-31T11:39:57.557Z,17
2022-12-31T11:49:59.463Z,17
2022-12-31T12:00:01.360Z,16.8
2022-12-31T12:10:03.322Z,16.9
2022-12-31T12:20:05.220Z,16.8
2022-12-31T12:30:07.305Z,16.6
2022-12-31T12:40:09.881Z,16.6
2022-12-31T12:50:11.682Z,15.9
2022-12-31T13:00:14.146Z,15.3
2022-12-31T13:10:16.711Z,15.5
2022-12-31T13:20:18.451Z,15.6
2022-12-31T13:30:20.904Z,16
2022-12-31T13:40:23.124Z,16.1
2022-12-31T13:50:24.896Z,16.2
2022-12-31T14:00:26.760Z,16.3
2022-12-31T14:10:28.490Z,15.7
2022-12-31T14:20:30.124Z,15.8
2022-12-31T14:30:32.421Z,16
2022-12-31T14:40:34.249Z,16.2
2022-12-31T14:50:35.954Z,16.3
2022-12-31T15:00:38.106Z,16.1
2022-12-31T15:20:41.840Z,15.7
2022-12-31T15:30:43.761Z,15.6
2022-12-31T15:50:48.320Z,15.3
2022-12-31T16:00:50.285Z,15.2
2022-12-31T16:10:52.727Z,15.4
2022-12-31T16:20:54.923Z,15.5
2022-12-31T16:40:59.182Z,16.1
2022-12-31T17:01:03.405Z,16.1
2022-12-31T17:11:05.667Z,16.3
2022-12-31T17:21:08.153Z,16.1
2022-12-31T17:31:10.245Z,16.1
2022-12-31T17:41:12.637Z,16.2
2022-12-31T17:51:14.546Z,15.9
2022-12-31T18:11:18.949Z,15.9
2022-12-31T18:21:21.379Z,15.8
2022-12-31T18:41:24.830Z,15.7
2022-12-31T18:51:31.971Z,15.5
2022-12-31T19:01:29.447Z,15.5
2022-12-31T19:11:31.623Z,15.6
2022-12-31T19:21:33.359Z,15.5
2022-12-31T19:31:35.559Z,15.6
2022-12-31T19:31:42.390Z,15.6
2022-12-31T19:41:44.076Z,15.6
2022-12-31T19:51:46.310Z,15.4
2022-12-31T20:01:48.205Z,15.5
2022-12-31T20:11:50.239Z,15.5
2022-12-31T20:21:52.510Z,15.6
2022-12-31T20:31:54.485Z,15.7
2022-12-31T20:41:56.346Z,15.8
2022-12-31T20:51:58.708Z,15.9
2022-12-31T21:02:21.700Z,15.8
2022-12-31T21:12:03.470Z,15.9
2022-12-31T21:22:05.362Z,15.9
2022-12-31T21:32:07.953Z,15.8
2022-12-31T21:42:09.733Z,15.9
2022-12-31T21:52:11.617Z,15.9
2022-12-31T22:02:13.388Z,16.1
2022-12-31T22:12:15.652Z,16.2
2022-12-31T22:32:19.877Z,16
2022-12-31T22:42:21.758Z,16.2
2022-12-31T22:52:24.030Z,16.2
2022-12-31T23:02:25.741Z,16.1
2022-12-31T23:12:27.510Z,16.4
2022-12-31T23:22:30.089Z,16.4
2022-12-31T23:32:32.546Z,16.4
2022-12-31T23:42:34.448Z,16.3
2022-12-31T23:52:36.374Z,16.3
